sensor_id;sensor_type;location;lat;lon;timestamp;temperature;humidity
48686;DHT22;34485;51.536;3.816;2023-05-07T00:00:20;14.50;99.90
48686;DHT22;34485;51.536;3.816;2023-05-07T00:02:46;14.50;99.90
48686;DHT22;34485;51.536;3.816;2023-05-07T00:05:12;14.50;99.90
48686;DHT22;34485;51.536;3.816;2023-05-07T00:07:38;14.50;99.90
48686;DHT22;34485;51.536;3.816;2023-05-07T00:10:04;14.50;99.90
48686;DHT22;34485;51.536;3.816;2023-05-07T00:12:31;14.50;99.90
48686;DHT22;34485;51.536;3.816;2023-05-07T00:14:59;14.50;99.90
48686;DHT22;34485;51.536;3.816;2023-05-07T00:17:25;14.50;99.90
48686;DHT22;34485;51.536;3.816;2023-05-07T00:19:50;14.50;99.90
48686;DHT22;34485;51.536;3.816;2023-05-07T00:22:16;14.50;99.90
48686;DHT22;34485;51.536;3.816;2023-05-07T00:24:41;14.50;99.90
48686;DHT22;34485;51.536;3.816;2023-05-07T00:27:07;14.50;99.90
48686;DHT22;34485;51.536;3.816;2023-05-07T00:29:33;14.50;99.90
48686;DHT22;34485;51.536;3.816;2023-05-07T00:31:58;14.50;99.90
48686;DHT22;34485;51.536;3.816;2023-05-07T00:34:24;14.50;99.90
48686;DHT22;34485;51.536;3.816;2023-05-07T00:36:50;14.50;99.90
48686;DHT22;34485;51.536;3.816;2023-05-07T00:39:15;14.40;99.90
48686;DHT22;34485;51.536;3.816;2023-05-07T00:41:41;14.40;99.90
48686;DHT22;34485;51.536;3.816;2023-05-07T00:44:06;14.40;99.90
48686;DHT22;34485;51.536;3.816;2023-05-07T00:46:32;14.40;99.90
48686;DHT22;34485;51.536;3.816;2023-05-07T00:48:59;14.40;99.90
48686;DHT22;34485;51.536;3.816;2023-05-07T00:51:26;14.40;99.90
48686;DHT22;34485;51.536;3.816;2023-05-07T00:53:54;14.40;99.90
48686;DHT22;34485;51.536;3.816;2023-05-07T00:56:21;14.30;99.90
48686;DHT22;34485;51.536;3.816;2023-05-07T00:58:48;14.30;99.90
48686;DHT22;34485;51.536;3.816;2023-05-07T01:01:13;14.30;99.90
48686;DHT22;34485;51.536;3.816;2023-05-07T01:03:41;14.30;99.90
48686;DHT22;34485;51.536;3.816;2023-05-07T01:06:07;14.30;99.90
48686;DHT22;34485;51.536;3.816;2023-05-07T01:08:34;14.30;99.90
48686;DHT22;34485;51.536;3.816;2023-05-07T01:11:01;14.30;99.90
48686;DHT22;34485;51.536;3.816;2023-05-07T01:13:27;14.20;99.90
48686;DHT22;34485;51.536;3.816;2023-05-07T01:15:53;14.20;99.90
48686;DHT22;34485;51.536;3.816;2023-05-07T01:18:19;14.20;99.90
48686;DHT22;34485;51.536;3.816;2023-05-07T01:20:45;14.10;99.90
48686;DHT22;34485;51.536;3.816;2023-05-07T01:23:11;14.10;99.90
48686;DHT22;34485;51.536;3.816;2023-05-07T01:25:37;14.10;99.90
48686;DHT22;34485;51.536;3.816;2023-05-07T01:28:03;14.00;99.90
48686;DHT22;34485;51.536;3.816;2023-05-07T01:30:29;14.10;99.90
48686;DHT22;34485;51.536;3.816;2023-05-07T01:32:59;14.00;99.90
48686;DHT22;34485;51.536;3.816;2023-05-07T01:35:30;14.00;99.90
48686;DHT22;34485;51.536;3.816;2023-05-07T01:37:57;14.00;99.90
48686;DHT22;34485;51.536;3.816;2023-05-07T01:40:24;14.10;99.90
48686;DHT22;34485;51.536;3.816;2023-05-07T01:42:51;14.00;99.90
48686;DHT22;34485;51.536;3.816;2023-05-07T01:45:17;14.00;99.90
48686;DHT22;34485;51.536;3.816;2023-05-07T01:47:43;14.00;99.90
48686;DHT22;34485;51.536;3.816;2023-05-07T01:50:10;13.90;99.90
48686;DHT22;34485;51.536;3.816;2023-05-07T01:52:37;13.80;99.90
48686;DHT22;34485;51.536;3.816;2023-05-07T01:55:04;13.80;99.90
48686;DHT22;34485;51.536;3.816;2023-05-07T01:57:30;13.70;99.90
48686;DHT22;34485;51.536;3.816;2023-05-07T01:59:56;13.70;99.90
48686;DHT22;34485;51.536;3.816;2023-05-07T02:02:21;13.70;99.90
48686;DHT22;34485;51.536;3.816;2023-05-07T02:04:47;13.70;99.90
48686;DHT22;34485;51.536;3.816;2023-05-07T02:07:12;13.70;99.90
48686;DHT22;34485;51.536;3.816;2023-05-07T02:09:38;13.70;99.90
48686;DHT22;34485;51.536;3.816;2023-05-07T02:12:04;13.60;99.90
48686;DHT22;34485;51.536;3.816;2023-05-07T02:14:29;13.60;99.90
48686;DHT22;34485;51.536;3.816;2023-05-07T02:16:55;13.60;99.90
48686;DHT22;34485;51.536;3.816;2023-05-07T02:19:21;13.50;99.90
48686;DHT22;34485;51.536;3.816;2023-05-07T02:21:47;13.50;99.90
48686;DHT22;34485;51.536;3.816;2023-05-07T02:24:13;13.40;99.90
48686;DHT22;34485;51.536;3.816;2023-05-07T02:26:40;13.30;99.90
48686;DHT22;34485;51.536;3.816;2023-05-07T02:29:06;13.30;99.90
48686;DHT22;34485;51.536;3.816;2023-05-07T02:31:32;13.20;99.90
48686;DHT22;34485;51.536;3.816;2023-05-07T02:33:59;13.20;99.90
48686;DHT22;34485;51.536;3.816;2023-05-07T02:36:25;13.10;99.90
48686;DHT22;34485;51.536;3.816;2023-05-07T02:38:52;13.10;99.90
48686;DHT22;34485;51.536;3.816;2023-05-07T02:41:18;13.20;99.90
48686;DHT22;34485;51.536;3.816;2023-05-07T02:43:43;13.30;99.90
48686;DHT22;34485;51.536;3.816;2023-05-07T02:46:09;13.30;99.90
48686;DHT22;34485;51.536;3.816;2023-05-07T02:48:35;13.40;99.90
48686;DHT22;34485;51.536;3.816;2023-05-07T02:51:01;13.40;99.90
48686;DHT22;34485;51.536;3.816;2023-05-07T02:53:27;13.40;99.90
48686;DHT22;34485;51.536;3.816;2023-05-07T02:56:00;13.40;99.90
48686;DHT22;34485;51.536;3.816;2023-05-07T02:58:27;13.40;99.90
48686;DHT22;34485;51.536;3.816;2023-05-07T03:00:53;13.40;99.90
48686;DHT22;34485;51.536;3.816;2023-05-07T03:03:20;13.40;99.90
48686;DHT22;34485;51.536;3.816;2023-05-07T03:05:45;13.40;99.90
48686;DHT22;34485;51.536;3.816;2023-05-07T03:08:11;13.40;99.90
48686;DHT22;34485;51.536;3.816;2023-05-07T03:10:37;13.30;99.90
48686;DHT22;34485;51.536;3.816;2023-05-07T03:13:03;13.30;99.90
48686;DHT22;34485;51.536;3.816;2023-05-07T03:15:29;13.30;99.90
48686;DHT22;34485;51.536;3.816;2023-05-07T03:17:55;13.30;99.90
48686;DHT22;34485;51.536;3.816;2023-05-07T03:20:21;13.30;99.90
48686;DHT22;34485;51.536;3.816;2023-05-07T03:22:47;13.30;99.90
48686;DHT22;34485;51.536;3.816;2023-05-07T03:25:13;13.40;99.90
48686;DHT22;34485;51.536;3.816;2023-05-07T03:27:39;13.40;99.90
48686;DHT22;34485;51.536;3.816;2023-05-07T03:30:05;13.50;99.90
48686;DHT22;34485;51.536;3.816;2023-05-07T03:32:32;13.50;99.90
48686;DHT22;34485;51.536;3.816;2023-05-07T03:34:57;13.60;99.90
48686;DHT22;34485;51.536;3.816;2023-05-07T03:37:23;13.60;99.90
48686;DHT22;34485;51.536;3.816;2023-05-07T03:39:49;13.60;99.90
48686;DHT22;34485;51.536;3.816;2023-05-07T03:42:15;13.70;99.90
48686;DHT22;34485;51.536;3.816;2023-05-07T03:44:40;13.70;99.90
48686;DHT22;34485;51.536;3.816;2023-05-07T03:47:06;13.80;99.90
48686;DHT22;34485;51.536;3.816;2023-05-07T03:49:31;13.80;99.90
48686;DHT22;34485;51.536;3.816;2023-05-07T03:51:57;13.90;99.90
48686;DHT22;34485;51.536;3.816;2023-05-07T03:54:23;13.90;99.90
48686;DHT22;34485;51.536;3.816;2023-05-07T03:56:48;13.90;99.90
48686;DHT22;34485;51.536;3.816;2023-05-07T03:59:14;13.90;99.90
48686;DHT22;34485;51.536;3.816;2023-05-07T04:01:40;13.90;99.90
48686;DHT22;34485;51.536;3.816;2023-05-07T04:04:05;13.90;99.90
48686;DHT22;34485;51.536;3.816;2023-05-07T04:06:31;13.90;99.90
48686;DHT22;34485;51.536;3.816;2023-05-07T04:08:57;13.90;99.90
48686;DHT22;34485;51.536;3.816;2023-05-07T04:11:23;14.00;99.90
48686;DHT22;34485;51.536;3.816;2023-05-07T04:13:49;14.00;99.90
48686;DHT22;34485;51.536;3.816;2023-05-07T04:16:15;14.00;99.90
48686;DHT22;34485;51.536;3.816;2023-05-07T04:18:40;14.00;99.90
48686;DHT22;34485;51.536;3.816;2023-05-07T04:21:16;14.00;99.90
48686;DHT22;34485;51.536;3.816;2023-05-07T04:23:42;13.90;99.90
48686;DHT22;34485;51.536;3.816;2023-05-07T04:26:08;13.90;99.90
48686;DHT22;34485;51.536;3.816;2023-05-07T04:28:34;13.90;99.90
48686;DHT22;34485;51.536;3.816;2023-05-07T04:31:00;13.90;99.90
48686;DHT22;34485;51.536;3.816;2023-05-07T04:33:25;13.90;99.90
48686;DHT22;34485;51.536;3.816;2023-05-07T04:35:51;13.90;99.90
48686;DHT22;34485;51.536;3.816;2023-05-07T04:38:17;14.00;99.90
48686;DHT22;34485;51.536;3.816;2023-05-07T04:40:44;14.00;99.90
48686;DHT22;34485;51.536;3.816;2023-05-07T04:43:10;14.00;99.90
48686;DHT22;34485;51.536;3.816;2023-05-07T04:45:36;14.10;99.90
48686;DHT22;34485;51.536;3.816;2023-05-07T04:48:02;14.10;99.90
48686;DHT22;34485;51.536;3.816;2023-05-07T04:50:28;14.20;99.90
48686;DHT22;34485;51.536;3.816;2023-05-07T04:52:53;14.20;99.90
48686;DHT22;34485;51.536;3.816;2023-05-07T04:55:19;14.30;99.90
48686;DHT22;34485;51.536;3.816;2023-05-07T04:57:44;14.40;99.90
48686;DHT22;34485;51.536;3.816;2023-05-07T05:00:11;14.60;99.90
48686;DHT22;34485;51.536;3.816;2023-05-07T05:02:40;14.60;99.90
48686;DHT22;34485;51.536;3.816;2023-05-07T05:05:06;14.80;99.90
48686;DHT22;34485;51.536;3.816;2023-05-07T05:07:32;14.80;99.90
48686;DHT22;34485;51.536;3.816;2023-05-07T05:09:58;14.90;99.90
48686;DHT22;34485;51.536;3.816;2023-05-07T05:12:24;15.00;99.90
48686;DHT22;34485;51.536;3.816;2023-05-07T05:14:49;15.20;99.90
48686;DHT22;34485;51.536;3.816;2023-05-07T05:17:15;15.30;99.90
48686;DHT22;34485;51.536;3.816;2023-05-07T05:19:41;15.40;99.90
48686;DHT22;34485;51.536;3.816;2023-05-07T05:24:32;15.60;99.90
48686;DHT22;34485;51.536;3.816;2023-05-07T05:26:58;15.60;99.90
48686;DHT22;34485;51.536;3.816;2023-05-07T05:29:27;15.70;99.90
48686;DHT22;34485;51.536;3.816;2023-05-07T05:31:52;15.80;99.90
48686;DHT22;34485;51.536;3.816;2023-05-07T05:34:18;15.90;99.90
48686;DHT22;34485;51.536;3.816;2023-05-07T05:36:45;15.90;99.90
48686;DHT22;34485;51.536;3.816;2023-05-07T05:39:11;16.00;99.90
48686;DHT22;34485;51.536;3.816;2023-05-07T05:41:36;16.00;99.90
48686;DHT22;34485;51.536;3.816;2023-05-07T05:44:02;16.00;99.90
48686;DHT22;34485;51.536;3.816;2023-05-07T05:46:27;16.00;99.90
48686;DHT22;34485;51.536;3.816;2023-05-07T05:48:53;16.10;99.90
48686;DHT22;34485;51.536;3.816;2023-05-07T05:51:20;16.10;99.90
48686;DHT22;34485;51.536;3.816;2023-05-07T05:53:45;16.10;99.90
48686;DHT22;34485;51.536;3.816;2023-05-07T05:56:11;16.20;99.90
48686;DHT22;34485;51.536;3.816;2023-05-07T05:58:37;16.30;99.90
48686;DHT22;34485;51.536;3.816;2023-05-07T06:01:03;16.40;99.90
48686;DHT22;34485;51.536;3.816;2023-05-07T06:03:28;16.50;99.90
48686;DHT22;34485;51.536;3.816;2023-05-07T06:05:54;16.40;99.90
48686;DHT22;34485;51.536;3.816;2023-05-07T06:08:19;16.50;99.90
48686;DHT22;34485;51.536;3.816;2023-05-07T06:10:45;16.50;99.90
48686;DHT22;34485;51.536;3.816;2023-05-07T06:13:11;16.50;99.90
48686;DHT22;34485;51.536;3.816;2023-05-07T06:15:37;16.60;99.90
48686;DHT22;34485;51.536;3.816;2023-05-07T06:18:02;16.60;99.90
48686;DHT22;34485;51.536;3.816;2023-05-07T06:20:28;16.60;99.90
48686;DHT22;34485;51.536;3.816;2023-05-07T06:22:53;16.60;99.90
48686;DHT22;34485;51.536;3.816;2023-05-07T06:25:19;16.60;99.90
48686;DHT22;34485;51.536;3.816;2023-05-07T06:27:45;16.60;99.90
48686;DHT22;34485;51.536;3.816;2023-05-07T06:30:11;16.70;99.90
48686;DHT22;34485;51.536;3.816;2023-05-07T06:32:37;16.60;99.90
48686;DHT22;34485;51.536;3.816;2023-05-07T06:35:03;16.70;99.90
48686;DHT22;34485;51.536;3.816;2023-05-07T06:37:28;16.50;99.90
48686;DHT22;34485;51.536;3.816;2023-05-07T06:39:54;16.50;99.90
48686;DHT22;34485;51.536;3.816;2023-05-07T06:42:19;16.50;99.90
48686;DHT22;34485;51.536;3.816;2023-05-07T06:44:45;16.50;99.90
48686;DHT22;34485;51.536;3.816;2023-05-07T06:47:11;16.60;99.90
48686;DHT22;34485;51.536;3.816;2023-05-07T06:49:36;16.80;99.90
48686;DHT22;34485;51.536;3.816;2023-05-07T06:52:02;16.80;99.90
48686;DHT22;34485;51.536;3.816;2023-05-07T06:54:28;16.80;99.90
48686;DHT22;34485;51.536;3.816;2023-05-07T06:56:54;16.80;99.90
48686;DHT22;34485;51.536;3.816;2023-05-07T06:59:19;16.90;99.90
48686;DHT22;34485;51.536;3.816;2023-05-07T07:01:45;17.00;99.90
48686;DHT22;34485;51.536;3.816;2023-05-07T07:04:10;16.90;99.90
48686;DHT22;34485;51.536;3.816;2023-05-07T07:06:36;16.90;99.90
48686;DHT22;34485;51.536;3.816;2023-05-07T07:09:02;17.00;99.90
48686;DHT22;34485;51.536;3.816;2023-05-07T07:11:27;17.00;99.90
48686;DHT22;34485;51.536;3.816;2023-05-07T07:13:53;17.00;99.90
48686;DHT22;34485;51.536;3.816;2023-05-07T07:16:20;17.20;99.90
48686;DHT22;34485;51.536;3.816;2023-05-07T07:18:46;17.30;99.90
48686;DHT22;34485;51.536;3.816;2023-05-07T07:21:12;17.50;99.90
48686;DHT22;34485;51.536;3.816;2023-05-07T07:23:37;17.50;99.90
48686;DHT22;34485;51.536;3.816;2023-05-07T07:26:03;17.70;99.90
48686;DHT22;34485;51.536;3.816;2023-05-07T07:28:28;17.70;99.90
48686;DHT22;34485;51.536;3.816;2023-05-07T07:30:54;18.00;99.90
48686;DHT22;34485;51.536;3.816;2023-05-07T07:33:19;18.20;99.90
48686;DHT22;34485;51.536;3.816;2023-05-07T07:43:03;20.30;99.90
48686;DHT22;34485;51.536;3.816;2023-05-07T07:45:30;20.90;98.40
48686;DHT22;34485;51.536;3.816;2023-05-07T07:47:55;21.60;96.90
48686;DHT22;34485;51.536;3.816;2023-05-07T07:50:21;22.50;94.60
48686;DHT22;34485;51.536;3.816;2023-05-07T07:52:48;22.60;92.10
48686;DHT22;34485;51.536;3.816;2023-05-07T08:00:09;23.10;99.90
48686;DHT22;34485;51.536;3.816;2023-05-07T08:07:27;22.70;99.90
48686;DHT22;34485;51.536;3.816;2023-05-07T08:09:53;22.90;91.80
48686;DHT22;34485;51.536;3.816;2023-05-07T08:17:10;23.00;99.90
48686;DHT22;34485;51.536;3.816;2023-05-07T08:19:36;23.30;91.00
48686;DHT22;34485;51.536;3.816;2023-05-07T08:24:29;23.30;99.90
48686;DHT22;34485;51.536;3.816;2023-05-07T08:26:55;23.00;99.90
48686;DHT22;34485;51.536;3.816;2023-05-07T08:31:47;22.70;99.90
48686;DHT22;34485;51.536;3.816;2023-05-07T08:34:13;22.10;90.70
48686;DHT22;34485;51.536;3.816;2023-05-07T08:36:38;22.20;92.60
48686;DHT22;34485;51.536;3.816;2023-05-07T08:41:31;22.50;99.90
48686;DHT22;34485;51.536;3.816;2023-05-07T08:43:58;22.70;99.90
48686;DHT22;34485;51.536;3.816;2023-05-07T08:46:25;23.20;99.90
48686;DHT22;34485;51.536;3.816;2023-05-07T08:48:51;23.50;90.30
48686;DHT22;34485;51.536;3.816;2023-05-07T08:51:21;23.80;87.90
48686;DHT22;34485;51.536;3.816;2023-05-07T08:53:48;23.60;86.30
48686;DHT22;34485;51.536;3.816;2023-05-07T08:56:14;24.00;86.10
48686;DHT22;34485;51.536;3.816;2023-05-07T09:01:15;24.60;99.90
48686;DHT22;34485;51.536;3.816;2023-05-07T09:06:09;24.60;99.90
48686;DHT22;34485;51.536;3.816;2023-05-07T09:08:35;24.70;82.60
48686;DHT22;34485;51.536;3.816;2023-05-07T09:11:02;24.60;83.00
48686;DHT22;34485;51.536;3.816;2023-05-07T09:13:28;24.50;81.70
48686;DHT22;34485;51.536;3.816;2023-05-07T09:15:54;24.60;81.70
48686;DHT22;34485;51.536;3.816;2023-05-07T09:18:20;24.70;83.30
48686;DHT22;34485;51.536;3.816;2023-05-07T09:20:46;25.20;81.20
48686;DHT22;34485;51.536;3.816;2023-05-07T09:28:05;26.30;74.70
48686;DHT22;34485;51.536;3.816;2023-05-07T09:30:33;26.10;72.50
48686;DHT22;34485;51.536;3.816;2023-05-07T09:33:01;25.80;71.60
48686;DHT22;34485;51.536;3.816;2023-05-07T09:35:27;25.70;75.50
48686;DHT22;34485;51.536;3.816;2023-05-07T09:37:57;25.40;78.10
48686;DHT22;34485;51.536;3.816;2023-05-07T09:40:27;25.40;79.30
48686;DHT22;34485;51.536;3.816;2023-05-07T09:42:54;25.80;78.40
48686;DHT22;34485;51.536;3.816;2023-05-07T09:45:28;26.00;77.60
48686;DHT22;34485;51.536;3.816;2023-05-07T09:47:56;25.70;75.20
48686;DHT22;34485;51.536;3.816;2023-05-07T09:50:27;25.10;77.60
48686;DHT22;34485;51.536;3.816;2023-05-07T09:52:57;24.50;81.60
48686;DHT22;34485;51.536;3.816;2023-05-07T09:55:23;24.40;81.10
48686;DHT22;34485;51.536;3.816;2023-05-07T09:57:52;24.10;83.70
48686;DHT22;34485;51.536;3.816;2023-05-07T10:00:19;24.00;82.40
48686;DHT22;34485;51.536;3.816;2023-05-07T10:02:51;24.10;83.70
48686;DHT22;34485;51.536;3.816;2023-05-07T10:05:21;24.00;82.20
48686;DHT22;34485;51.536;3.816;2023-05-07T10:07:48;23.60;83.10
48686;DHT22;34485;51.536;3.816;2023-05-07T10:10:15;23.80;84.00
48686;DHT22;34485;51.536;3.816;2023-05-07T10:12:41;23.60;82.50
48686;DHT22;34485;51.536;3.816;2023-05-07T10:15:10;23.70;84.60
48686;DHT22;34485;51.536;3.816;2023-05-07T10:17:38;23.80;82.10
48686;DHT22;34485;51.536;3.816;2023-05-07T10:20:04;23.80;85.50
48686;DHT22;34485;51.536;3.816;2023-05-07T10:22:36;23.80;81.50
48686;DHT22;34485;51.536;3.816;2023-05-07T10:25:03;23.70;81.00
48686;DHT22;34485;51.536;3.816;2023-05-07T10:27:31;23.10;83.10
48686;DHT22;34485;51.536;3.816;2023-05-07T10:32:48;23.20;85.70
48686;DHT22;34485;51.536;3.816;2023-05-07T10:35:25;23.10;84.60
48686;DHT22;34485;51.536;3.816;2023-05-07T10:37:51;22.90;88.20
48686;DHT22;34485;51.536;3.816;2023-05-07T10:40:19;22.70;86.50
48686;DHT22;34485;51.536;3.816;2023-05-07T10:45:21;22.80;85.10
48686;DHT22;34485;51.536;3.816;2023-05-07T10:48:07;23.00;86.60
48686;DHT22;34485;51.536;3.816;2023-05-07T10:50:34;23.00;86.00
48686;DHT22;34485;51.536;3.816;2023-05-07T10:55:47;23.30;83.20
48686;DHT22;34485;51.536;3.816;2023-05-07T10:58:24;23.40;85.00
48686;DHT22;34485;51.536;3.816;2023-05-07T11:01:00;23.60;84.00
48686;DHT22;34485;51.536;3.816;2023-05-07T11:03:27;23.60;83.90
48686;DHT22;34485;51.536;3.816;2023-05-07T11:06:20;23.60;85.20
48686;DHT22;34485;51.536;3.816;2023-05-07T11:08:57;23.60;84.20
48686;DHT22;34485;51.536;3.816;2023-05-07T11:11:49;23.80;99.90
48686;DHT22;34485;51.536;3.816;2023-05-07T11:17:06;23.70;99.90
48686;DHT22;34485;51.536;3.816;2023-05-07T11:19:52;23.80;99.90
48686;DHT22;34485;51.536;3.816;2023-05-07T11:25:05;24.10;99.90
48686;DHT22;34485;51.536;3.816;2023-05-07T11:27:31;24.10;88.50
48686;DHT22;34485;51.536;3.816;2023-05-07T11:29:57;24.10;87.60
48686;DHT22;34485;51.536;3.816;2023-05-07T11:32:32;24.20;86.60
48686;DHT22;34485;51.536;3.816;2023-05-07T11:34:59;24.00;87.30
48686;DHT22;34485;51.536;3.816;2023-05-07T11:37:26;24.00;87.20
48686;DHT22;34485;51.536;3.816;2023-05-07T11:40:06;24.00;85.20
48686;DHT22;34485;51.536;3.816;2023-05-07T11:42:34;23.80;85.40
48686;DHT22;34485;51.536;3.816;2023-05-07T11:45:01;23.70;99.90
48686;DHT22;34485;51.536;3.816;2023-05-07T11:47:30;23.60;89.10
48686;DHT22;34485;51.536;3.816;2023-05-07T11:49:56;23.40;85.80
48686;DHT22;34485;51.536;3.816;2023-05-07T11:52:23;23.40;87.20
48686;DHT22;34485;51.536;3.816;2023-05-07T11:54:59;23.50;99.90
48686;DHT22;34485;51.536;3.816;2023-05-07T11:57:26;23.50;99.90
48686;DHT22;34485;51.536;3.816;2023-05-07T11:59:56;23.50;99.90
48686;DHT22;34485;51.536;3.816;2023-05-07T12:02:23;23.40;91.30
48686;DHT22;34485;51.536;3.816;2023-05-07T12:04:50;23.40;91.50
48686;DHT22;34485;51.536;3.816;2023-05-07T12:07:16;23.30;90.30
48686;DHT22;34485;51.536;3.816;2023-05-07T12:09:44;23.40;91.60
48686;DHT22;34485;51.536;3.816;2023-05-07T12:12:11;23.40;90.80
48686;DHT22;34485;51.536;3.816;2023-05-07T12:14:40;23.50;90.60
48686;DHT22;34485;51.536;3.816;2023-05-07T12:17:10;23.60;90.50
48686;DHT22;34485;51.536;3.816;2023-05-07T12:19:37;23.40;91.00
48686;DHT22;34485;51.536;3.816;2023-05-07T12:22:03;23.30;91.20
48686;DHT22;34485;51.536;3.816;2023-05-07T12:24:48;23.40;90.80
48686;DHT22;34485;51.536;3.816;2023-05-07T12:27:15;23.20;91.00
48686;DHT22;34485;51.536;3.816;2023-05-07T12:29:46;22.80;91.30
48686;DHT22;34485;51.536;3.816;2023-05-07T12:32:16;22.80;91.80
48686;DHT22;34485;51.536;3.816;2023-05-07T12:34:42;22.70;91.90
48686;DHT22;34485;51.536;3.816;2023-05-07T12:37:07;22.40;99.90
48686;DHT22;34485;51.536;3.816;2023-05-07T12:39:33;22.20;93.10
48686;DHT22;34485;51.536;3.816;2023-05-07T12:41:59;22.00;93.70
48686;DHT22;34485;51.536;3.816;2023-05-07T12:44:29;21.80;94.20
48686;DHT22;34485;51.536;3.816;2023-05-07T12:46:55;21.60;95.10
48686;DHT22;34485;51.536;3.816;2023-05-07T12:49:21;21.30;95.90
48686;DHT22;34485;51.536;3.816;2023-05-07T12:51:47;21.00;97.00
48686;DHT22;34485;51.536;3.816;2023-05-07T12:54:27;20.70;99.20
48686;DHT22;34485;51.536;3.816;2023-05-07T12:57:03;20.30;99.90
48686;DHT22;34485;51.536;3.816;2023-05-07T12:59:36;19.80;99.90
48686;DHT22;34485;51.536;3.816;2023-05-07T13:02:02;19.50;99.90
48686;DHT22;34485;51.536;3.816;2023-05-07T13:04:27;19.30;99.90
48686;DHT22;34485;51.536;3.816;2023-05-07T13:06:53;19.20;99.90
48686;DHT22;34485;51.536;3.816;2023-05-07T13:09:19;18.90;99.90
48686;DHT22;34485;51.536;3.816;2023-05-07T13:11:44;18.70;99.90
48686;DHT22;34485;51.536;3.816;2023-05-07T13:14:10;18.60;99.90
48686;DHT22;34485;51.536;3.816;2023-05-07T13:16:36;18.70;99.90
48686;DHT22;34485;51.536;3.816;2023-05-07T13:19:01;18.80;99.90
48686;DHT22;34485;51.536;3.816;2023-05-07T13:21:27;18.90;99.90
48686;DHT22;34485;51.536;3.816;2023-05-07T13:23:53;19.10;99.90
48686;DHT22;34485;51.536;3.816;2023-05-07T13:26:18;19.40;99.90
48686;DHT22;34485;51.536;3.816;2023-05-07T13:28:44;19.90;99.90
48686;DHT22;34485;51.536;3.816;2023-05-07T13:31:09;20.30;99.90
48686;DHT22;34485;51.536;3.816;2023-05-07T13:33:35;20.80;99.90
48686;DHT22;34485;51.536;3.816;2023-05-07T13:36:02;21.30;99.90
48686;DHT22;34485;51.536;3.816;2023-05-07T13:38:30;21.50;99.90
48686;DHT22;34485;51.536;3.816;2023-05-07T13:40:55;21.70;99.60
48686;DHT22;34485;51.536;3.816;2023-05-07T13:43:21;21.80;98.50
48686;DHT22;34485;51.536;3.816;2023-05-07T13:45:47;21.80;99.90
48686;DHT22;34485;51.536;3.816;2023-05-07T13:48:12;21.60;99.90
48686;DHT22;34485;51.536;3.816;2023-05-07T13:50:38;21.50;99.90
48686;DHT22;34485;51.536;3.816;2023-05-07T13:53:03;21.50;99.90
48686;DHT22;34485;51.536;3.816;2023-05-07T13:55:29;21.40;99.90
48686;DHT22;34485;51.536;3.816;2023-05-07T13:57:56;21.40;99.90
48686;DHT22;34485;51.536;3.816;2023-05-07T14:00:23;21.40;99.90
48686;DHT22;34485;51.536;3.816;2023-05-07T14:02:49;21.50;99.90
48686;DHT22;34485;51.536;3.816;2023-05-07T14:05:14;21.40;99.90
48686;DHT22;34485;51.536;3.816;2023-05-07T14:07:40;21.30;99.90
48686;DHT22;34485;51.536;3.816;2023-05-07T14:10:06;21.40;99.90
48686;DHT22;34485;51.536;3.816;2023-05-07T14:12:32;21.40;99.90
48686;DHT22;34485;51.536;3.816;2023-05-07T14:14:58;21.00;97.90
48686;DHT22;34485;51.536;3.816;2023-05-07T14:17:24;20.70;98.80
48686;DHT22;34485;51.536;3.816;2023-05-07T14:19:52;20.60;99.90
48686;DHT22;34485;51.536;3.816;2023-05-07T14:22:20;20.80;99.90
48686;DHT22;34485;51.536;3.816;2023-05-07T14:24:47;20.60;99.80
48686;DHT22;34485;51.536;3.816;2023-05-07T14:27:12;20.60;99.60
48686;DHT22;34485;51.536;3.816;2023-05-07T14:29:38;20.70;99.90
48686;DHT22;34485;51.536;3.816;2023-05-07T14:32:04;20.70;99.40
48686;DHT22;34485;51.536;3.816;2023-05-07T14:34:31;20.60;99.60
48686;DHT22;34485;51.536;3.816;2023-05-07T14:36:57;20.50;97.90
48686;DHT22;34485;51.536;3.816;2023-05-07T14:39:23;20.40;99.00
48686;DHT22;34485;51.536;3.816;2023-05-07T14:41:49;20.40;99.90
48686;DHT22;34485;51.536;3.816;2023-05-07T14:44:15;20.30;99.90
48686;DHT22;34485;51.536;3.816;2023-05-07T14:46:40;20.10;99.90
48686;DHT22;34485;51.536;3.816;2023-05-07T14:49:06;20.10;99.90
48686;DHT22;34485;51.536;3.816;2023-05-07T14:51:32;19.90;99.90
48686;DHT22;34485;51.536;3.816;2023-05-07T14:53:58;19.90;99.90
48686;DHT22;34485;51.536;3.816;2023-05-07T14:56:24;19.90;99.90
48686;DHT22;34485;51.536;3.816;2023-05-07T14:58:50;19.80;99.80
48686;DHT22;34485;51.536;3.816;2023-05-07T15:01:15;19.80;99.90
48686;DHT22;34485;51.536;3.816;2023-05-07T15:03:41;19.80;99.90
48686;DHT22;34485;51.536;3.816;2023-05-07T15:06:07;19.80;99.90
48686;DHT22;34485;51.536;3.816;2023-05-07T15:08:32;20.00;99.90
48686;DHT22;34485;51.536;3.816;2023-05-07T15:10:58;20.00;99.90
48686;DHT22;34485;51.536;3.816;2023-05-07T15:13:23;20.20;99.90
48686;DHT22;34485;51.536;3.816;2023-05-07T15:15:49;20.30;99.30
48686;DHT22;34485;51.536;3.816;2023-05-07T15:18:15;20.20;99.00
48686;DHT22;34485;51.536;3.816;2023-05-07T15:20:41;20.20;99.90
48686;DHT22;34485;51.536;3.816;2023-05-07T15:23:08;20.30;99.90
48686;DHT22;34485;51.536;3.816;2023-05-07T15:25:42;20.30;99.00
48686;DHT22;34485;51.536;3.816;2023-05-07T15:28:08;20.40;99.00
48686;DHT22;34485;51.536;3.816;2023-05-07T15:30:34;20.20;98.80
48686;DHT22;34485;51.536;3.816;2023-05-07T15:33:01;20.10;99.00
48686;DHT22;34485;51.536;3.816;2023-05-07T15:35:27;20.10;99.00
48686;DHT22;34485;51.536;3.816;2023-05-07T15:37:53;20.00;99.60
48686;DHT22;34485;51.536;3.816;2023-05-07T15:40:19;19.90;99.90
48686;DHT22;34485;51.536;3.816;2023-05-07T15:42:45;19.80;99.90
48686;DHT22;34485;51.536;3.816;2023-05-07T15:45:11;19.50;99.90
48686;DHT22;34485;51.536;3.816;2023-05-07T15:47:37;19.40;99.90
48686;DHT22;34485;51.536;3.816;2023-05-07T15:50:03;19.30;99.90
48686;DHT22;34485;51.536;3.816;2023-05-07T15:52:29;19.10;99.90
48686;DHT22;34485;51.536;3.816;2023-05-07T15:54:56;19.20;99.90
48686;DHT22;34485;51.536;3.816;2023-05-07T15:57:22;19.20;99.90
48686;DHT22;34485;51.536;3.816;2023-05-07T15:59:48;19.20;99.90
48686;DHT22;34485;51.536;3.816;2023-05-07T16:02:13;19.10;99.90
48686;DHT22;34485;51.536;3.816;2023-05-07T16:04:39;19.00;99.90
48686;DHT22;34485;51.536;3.816;2023-05-07T16:07:05;19.10;99.90
48686;DHT22;34485;51.536;3.816;2023-05-07T16:09:31;19.20;99.90
48686;DHT22;34485;51.536;3.816;2023-05-07T16:11:57;19.20;99.90
48686;DHT22;34485;51.536;3.816;2023-05-07T16:14:22;19.30;99.90
48686;DHT22;34485;51.536;3.816;2023-05-07T16:16:48;19.20;99.90
48686;DHT22;34485;51.536;3.816;2023-05-07T16:19:14;19.10;99.90
48686;DHT22;34485;51.536;3.816;2023-05-07T16:21:40;19.00;99.90